Time;durP1;ratioP1;P1;durP2;ratioP2;P2;SDS_P1;SDS_P2;PMS_P1;PMS_P2;Temp;Humidity;BMP_temperature;BMP_pressure;BME280_temperature;BME280_humidity;BME280_pressure;Samples;Min_cycle;Max_cycle;Signal;HPM_P1;HPM_P2
2022/07/10 00:00:37;;;;;;;5.50;1.55;;;;;;;;;;5051312;28;20041;-70
2022/07/10 00:03:04;;;;;;;8.48;1.95;;;;;;;;;;5050021;28;20041;-70
2022/07/10 00:05:30;;;;;;;8.05;1.20;;;;;;;;;;5049948;28;20051;-70
2022/07/10 00:07:56;;;;;;;10.73;1.48;;;;;;;;;;5050037;28;20043;-70
2022/07/10 00:10:23;;;;;;;6.72;1.20;;;14.80;99.90;;;;;;5051051;28;20047;-70
2022/07/10 00:12:50;;;;;;;6.47;1.75;;;14.80;99.90;;;;;;5033578;28;20508;-70
2022/07/10 00:15:17;;;;;;;7.75;1.70;;;15.00;99.90;;;;;;5051295;28;20518;-70
2022/07/10 00:17:44;;;;;;;6.55;1.55;;;14.80;99.90;;;;;;5051257;28;20041;-70
2022/07/10 00:20:11;;;;;;;5.35;1.63;;;14.50;99.90;;;;;;5049556;28;20037;-70
2022/07/10 00:22:38;;;;;;;9.77;2.05;;;14.70;99.90;;;;;;5051166;28;20522;-70
2022/07/10 00:25:05;;;;;;;7.25;1.50;;;14.80;99.90;;;;;;5050011;28;20063;-70
2022/07/10 00:27:30;;;;;;;5.63;2.00;;;14.80;99.90;;;;;;5049690;28;20052;-70
2022/07/10 00:29:56;;;;;;;8.38;2.20;;;14.70;99.90;;;;;;5050849;28;20037;-70
2022/07/10 00:32:22;;;;;;;11.02;2.65;;;14.70;99.90;;;;;;5036748;28;20037;-70
2022/07/10 00:34:47;;;;;;;13.60;3.03;;;14.60;99.90;;;;;;5053093;28;20040;-70
2022/07/10 00:37:13;;;;;;;9.35;3.05;;;14.60;99.90;;;;;;5083034;22;20067;-70
2022/07/10 00:39:38;;;;;;;10.18;3.60;;;14.70;99.90;;;;;;5114216;28;20060;-71
2022/07/10 00:42:13;;;;;;;12.40;3.92;;;14.60;99.90;;;;;;5114997;28;20328;-70
2022/07/10 00:44:39;;;;;;;10.43;2.72;;;14.60;99.90;;;;;;5113565;28;20100;-70
2022/07/10 00:47:06;;;;;;;10.80;3.17;;;14.60;99.90;;;;;;5113442;28;20055;-71
2022/07/10 00:49:33;;;;;;;11.05;3.13;;;14.60;99.90;;;;;;5114298;28;20496;-70
2022/07/10 00:52:00;;;;;;;11.50;2.83;;;14.60;99.90;;;;;;5114612;28;20075;-71
2022/07/10 00:54:26;;;;;;;9.90;3.75;;;15.00;99.90;;;;;;5113240;28;20075;-71
2022/07/10 00:56:52;;;;;;;8.52;3.03;;;14.80;99.90;;;;;;5113296;28;20083;-71
2022/07/10 00:59:19;;;;;;;9.25;2.58;;;15.00;99.90;;;;;;5114137;28;20071;-71
2022/07/10 01:01:45;;;;;;;9.63;2.60;;;15.00;99.90;;;;;;5113159;28;20071;-72
2022/07/10 01:04:10;;;;;;;12.20;3.35;;;15.00;99.90;;;;;;5114298;28;20086;-70
2022/07/10 01:06:36;;;;;;;11.13;2.90;;;14.60;99.90;;;;;;5113282;28;20072;-70
2022/07/10 01:09:02;;;;;;;8.18;1.98;;;15.40;99.90;;;;;;5114123;28;20040;-70
2022/07/10 01:11:29;;;;;;;10.85;2.72;;;14.80;99.90;;;;;;5114310;28;20046;-70
2022/07/10 01:13:55;;;;;;;10.18;1.85;;;14.60;99.90;;;;;;5112817;28;20071;-70
2022/07/10 01:16:22;;;;;;;9.40;3.20;;;14.80;99.90;;;;;;5112792;28;20039;-70
2022/07/10 01:18:47;;;;;;;10.45;2.28;;;14.70;99.90;;;;;;5113979;28;20244;-70
2022/07/10 01:21:24;;;;;;;13.30;3.15;;;14.80;99.90;;;;;;5112749;28;20028;-70
2022/07/10 01:23:49;;;;;;;15.30;4.05;;;14.70;99.90;;;;;;5095653;28;20115;-70
2022/07/10 01:26:15;;;;;;;11.82;3.35;;;14.60;99.90;;;;;;5112766;28;20071;-70
2022/07/10 01:28:41;;;;;;;12.98;3.72;;;14.70;99.90;;;;;;5112708;28;20039;-69
2022/07/10 01:31:06;;;;;;;9.93;3.13;;;14.70;99.90;;;;;;5113528;28;20035;-70
2022/07/10 01:33:32;;;;;;;11.05;2.63;;;14.70;99.90;;;;;;5112380;28;20126;-70
2022/07/10 01:35:58;;;;;;;9.77;2.85;;;14.80;99.90;;;;;;5112729;28;20050;-69
2022/07/10 01:38:24;;;;;;;11.32;2.60;;;14.80;99.90;;;;;;5112281;28;20124;-69
2022/07/10 01:40:49;;;;;;;7.90;3.33;;;14.80;99.90;;;;;;5111848;28;20066;-69
2022/07/10 01:43:15;;;;;;;7.20;2.70;;;14.80;99.90;;;;;;5113940;28;20459;-70
2022/07/10 01:45:40;;;;;;;9.38;2.50;;;14.90;99.90;;;;;;5112422;28;20549;-70
2022/07/10 01:48:06;;;;;;;8.63;2.03;;;14.60;99.90;;;;;;5095149;28;20051;-69
2022/07/10 01:50:32;;;;;;;8.82;3.38;;;14.80;99.90;;;;;;5111999;28;20120;-70
2022/07/10 01:52:57;;;;;;;13.07;2.90;;;14.90;99.90;;;;;;5113583;28;20092;-72
2022/07/10 01:55:23;;;;;;;9.70;1.98;;;14.90;99.90;;;;;;5095186;28;20123;-69
2022/07/10 01:57:48;;;;;;;9.55;2.20;;;14.90;99.90;;;;;;5111856;28;20092;-69
2022/07/10 02:00:14;;;;;;;5.85;1.30;;;14.70;99.90;;;;;;5095089;28;20031;-70
2022/07/10 02:02:40;;;;;;;10.02;2.75;;;14.50;99.90;;;;;;5113660;28;20482;-71
2022/07/10 02:05:05;;;;;;;9.57;1.25;;;14.60;99.90;;;;;;5112114;28;20038;-70
2022/07/10 02:07:31;;;;;;;7.18;1.55;;;14.60;99.90;;;;;;5113254;28;20040;-70
2022/07/10 02:09:57;;;;;;;7.10;1.35;;;14.60;99.90;;;;;;5113036;28;20649;-70
2022/07/10 02:12:22;;;;;;;5.35;1.50;;;14.50;99.90;;;;;;5112171;28;20035;-70
2022/07/10 02:14:48;;;;;;;6.78;1.10;;;14.40;99.90;;;;;;5111760;28;20055;-69
2022/07/10 02:17:15;;;;;;;7.35;1.92;;;14.50;99.90;;;;;;5111432;28;20032;-69
2022/07/10 02:19:41;;;;;;;6.97;1.40;;;14.40;99.90;;;;;;5094340;28;20032;-69
2022/07/10 02:22:07;;;;;;;8.95;1.60;;;14.40;99.90;;;;;;5111487;28;20178;-69
2022/07/10 02:24:32;;;;;;;11.18;2.13;;;14.40;99.90;;;;;;5111476;28;20077;-69
2022/07/10 02:26:58;;;;;;;11.65;2.00;;;14.60;99.90;;;;;;5111513;28;20035;-69
2022/07/10 02:29:24;;;;;;;6.20;1.67;;;14.60;99.90;;;;;;5111138;28;20043;-70
2022/07/10 02:31:50;;;;;;;9.45;2.28;;;14.60;99.90;;;;;;5111294;28;20058;-69
2022/07/10 02:34:15;;;;;;;5.05;2.20;;;14.90;99.90;;;;;;5112699;28;20031;-70
2022/07/10 02:36:41;;;;;;;6.65;1.42;;;14.70;99.90;;;;;;5112704;28;20043;-69
2022/07/10 02:39:07;;;;;;;11.70;1.90;;;14.50;99.90;;;;;;5112074;28;20404;-68
2022/07/10 02:41:35;;;;;;;8.20;2.08;;;15.10;99.90;;;;;;5112510;28;20525;-69
2022/07/10 02:44:01;;;;;;;6.05;1.40;;;14.70;99.90;;;;;;5111194;28;20039;-70
2022/07/10 02:46:27;;;;;;;5.88;1.30;;;14.60;99.90;;;;;;5094126;28;20118;-69
2022/07/10 02:48:52;;;;;;;8.73;1.52;;;14.70;99.90;;;;;;5112283;28;20119;-68
2022/07/10 02:51:18;;;;;;;7.25;1.65;;;14.80;99.90;;;;;;5110767;28;20040;-69
2022/07/10 02:53:43;;;;;;;5.00;1.67;;;14.70;99.90;;;;;;5111675;28;20039;-70
2022/07/10 02:56:09;;;;;;;7.10;1.70;;;14.70;99.90;;;;;;5110905;28;20115;-70
2022/07/10 02:58:34;;;;;;;13.40;2.95;;;14.80;99.90;;;;;;5094185;28;20039;-69
2022/07/10 03:01:00;;;;;;;7.97;1.85;;;14.60;99.90;;;;;;5111766;28;20051;-69
2022/07/10 03:03:26;;;;;;;6.80;1.30;;;14.90;99.90;;;;;;5111031;28;20138;-69
2022/07/10 03:05:52;;;;;;;7.10;1.70;;;15.30;99.90;;;;;;5111030;28;20035;-70
2022/07/10 03:08:17;;;;;;;7.78;1.73;;;14.90;99.90;;;;;;5110761;28;20185;-69
2022/07/10 03:10:43;;;;;;;6.82;1.33;;;14.80;99.90;;;;;;5111787;28;20035;-69
2022/07/10 03:13:08;;;;;;;9.30;1.40;;;14.90;99.90;;;;;;5110731;28;20035;-69
2022/07/10 03:15:34;;;;;;;7.57;1.90;;;14.90;99.90;;;;;;5111839;28;20110;-70
2022/07/10 03:18:00;;;;;;;12.43;1.65;;;14.80;99.90;;;;;;5110844;28;20600;-70
2022/07/10 03:20:25;;;;;;;11.25;1.88;;;15.00;99.90;;;;;;5110747;28;20331;-69
2022/07/10 03:22:51;;;;;;;9.48;3.35;;;14.90;99.90;;;;;;5111970;28;20071;-69
2022/07/10 03:25:17;;;;;;;11.25;1.90;;;15.00;99.90;;;;;;5110661;28;20035;-69
2022/07/10 03:27:42;;;;;;;8.98;2.38;;;14.80;99.90;;;;;;5093590;28;20142;-71
2022/07/10 03:30:09;;;;;;;11.98;2.30;;;15.00;99.90;;;;;;5110412;28;20061;-69
2022/07/10 03:32:34;;;;;;;10.35;2.25;;;15.00;99.90;;;;;;5110476;28;20035;-69
2022/07/10 03:35:00;;;;;;;9.00;2.95;;;15.10;99.90;;;;;;5110614;28;20039;-69
2022/07/10 03:37:26;;;;;;;11.02;2.05;;;15.00;99.90;;;;;;5110364;28;20097;-70
2022/07/10 03:39:52;;;;;;;10.00;2.50;;;15.00;99.90;;;;;;5110212;28;20047;-70
2022/07/10 03:42:17;;;;;;;10.52;3.20;;;15.10;99.90;;;;;;5111779;28;20031;-71
2022/07/10 03:44:43;;;;;;;13.30;3.35;;;15.00;99.90;;;;;;5110576;28;20028;-69
2022/07/10 03:47:09;;;;;;;9.63;2.80;;;15.60;99.90;;;;;;5110300;28;20061;-70
2022/07/10 03:49:34;;;;;;;10.55;2.58;;;15.50;99.90;;;;;;5110039;28;20043;-69
2022/07/10 03:52:01;;;;;;;26.83;4.97;;;15.00;99.90;;;;;;5110285;28;20036;-71
2022/07/10 03:54:27;;;;;;;8.85;2.13;;;15.00;99.90;;;;;;5111618;28;20078;-69
2022/07/10 03:59:37;;;;;;;9.32;3.17;;;15.00;99.90;;;;;;5111407;28;20070;-69
2022/07/10 04:02:03;;;;;;;8.38;3.28;;;14.90;99.90;;;;;;5110310;28;20031;-69
2022/07/10 04:04:29;;;;;;;6.80;3.30;;;15.00;99.90;;;;;;5112625;28;20036;-69
2022/07/10 04:06:54;;;;;;;7.65;3.25;;;14.90;99.90;;;;;;5097130;28;20048;-69
2022/07/10 04:09:20;;;;;;;8.82;2.75;;;15.00;99.90;;;;;;5114100;28;20043;-69
2022/07/10 04:11:46;;;;;;;15.95;3.45;;;14.90;99.90;;;;;;5114049;28;20075;-69
2022/07/10 04:14:12;;;;;;;11.75;2.83;;;15.00;99.90;;;;;;5113995;28;20198;-69
2022/07/10 04:16:37;;;;;;;7.68;2.33;;;14.80;99.90;;;;;;5113928;28;20039;-70
2022/07/10 04:19:03;;;;;;;12.05;2.65;;;14.90;99.90;;;;;;5113648;28;20039;-69
2022/07/10 04:21:28;;;;;;;14.43;3.22;;;14.90;99.90;;;;;;5114046;28;20122;-69
2022/07/10 04:23:54;;;;;;;11.20;2.40;;;15.00;99.90;;;;;;5115178;28;20039;-70
2022/07/10 04:26:19;;;;;;;12.82;4.25;;;15.10;99.90;;;;;;5115051;28;20035;-69
2022/07/10 04:28:45;;;;;;;11.35;3.67;;;15.20;99.90;;;;;;5113927;28;20039;-69
2022/07/10 04:31:11;;;;;;;5.82;2.90;;;14.80;99.90;;;;;;5113422;28;20042;-69
2022/07/10 04:33:37;;;;;;;9.75;3.60;;;15.00;99.90;;;;;;5113857;28;20039;-69
2022/07/10 04:36:02;;;;;;;7.38;2.42;;;14.90;99.90;;;;;;5113588;28;20122;-71
2022/07/10 04:38:28;;;;;;;8.02;2.33;;;15.00;99.90;;;;;;5114734;28;20036;-69
2022/07/10 04:40:54;;;;;;;8.98;2.25;;;14.90;99.90;;;;;;5106104;28;20035;-69
2022/07/10 04:43:20;;;;;;;12.13;3.17;;;14.80;99.90;;;;;;5099539;28;20444;-69
2022/07/10 04:45:46;;;;;;;16.65;3.20;;;15.00;99.90;;;;;;5092724;28;20087;-69
2022/07/10 04:48:12;;;;;;;11.30;3.10;;;15.00;99.90;;;;;;5093136;28;20067;-69
2022/07/10 04:50:37;;;;;;;8.05;2.45;;;14.90;99.90;;;;;;5092637;28;20446;-69
2022/07/10 04:53:03;;;;;;;8.18;3.10;;;14.90;99.90;;;;;;5093705;28;20036;-70
2022/07/10 04:55:29;;;;;;;11.73;2.72;;;14.90;99.90;;;;;;5092453;28;20094;-69
2022/07/10 04:57:54;;;;;;;8.50;3.30;;;14.90;99.90;;;;;;5094109;28;20101;-69
2022/07/10 05:00:20;;;;;;;20.75;4.65;;;15.00;99.90;;;;;;5093004;28;20036;-70
2022/07/10 05:02:46;;;;;;;10.45;3.58;;;14.90;99.90;;;;;;5091902;28;20581;-69
2022/07/10 05:05:12;;;;;;;10.27;3.28;;;15.30;99.90;;;;;;5092769;28;20276;-72
2022/07/10 05:07:37;;;;;;;10.27;3.42;;;14.90;99.90;;;;;;5103338;28;20054;-69
2022/07/10 05:10:03;;;;;;;11.20;3.58;;;14.90;99.90;;;;;;5108683;28;20063;-67
2022/07/10 05:12:29;;;;;;;9.85;3.17;;;15.00;99.90;;;;;;5097456;28;20738;-70
2022/07/10 05:14:55;;;;;;;8.52;4.40;;;15.10;99.90;;;;;;5100286;28;20032;-69
2022/07/10 05:17:21;;;;;;;14.82;4.35;;;15.10;99.90;;;;;;5107156;28;20044;-69
2022/07/10 05:19:47;;;;;;;11.15;3.60;;;15.20;99.90;;;;;;5107045;28;20096;-72
2022/07/10 05:22:12;;;;;;;11.55;4.85;;;15.10;99.90;;;;;;5102514;28;20036;-68
2022/07/10 05:24:38;;;;;;;9.93;3.83;;;16.30;99.90;;;;;;5091478;28;20039;-69
2022/07/10 05:27:04;;;;;;;10.35;2.70;;;15.30;99.90;;;;;;5102340;28;20039;-69
2022/07/10 05:29:29;;;;;;;7.22;2.40;;;15.20;99.90;;;;;;5108072;28;20039;-69
2022/07/10 05:31:55;;;;;;;10.15;3.70;;;15.30;99.90;;;;;;5107421;28;20051;-70
2022/07/10 05:34:20;;;;;;;9.75;3.25;;;16.80;99.90;;;;;;5106534;28;20035;-69
2022/07/10 05:36:46;;;;;;;10.93;3.40;;;15.40;99.90;;;;;;5107506;28;20473;-70
2022/07/10 05:39:12;;;;;;;16.63;4.35;;;15.40;99.90;;;;;;5103353;28;20032;-71
2022/07/10 05:41:37;;;;;;;10.02;3.33;;;15.50;99.90;;;;;;5110148;28;20481;-69
2022/07/10 05:44:03;;;;;;;12.20;3.60;;;15.30;99.90;;;;;;5107326;28;20036;-69
2022/07/10 05:46:28;;;;;;;8.10;3.95;;;15.60;99.90;;;;;;5110254;28;20096;-70
2022/07/10 05:48:54;;;;;;;7.85;2.20;;;15.40;99.90;;;;;;5106605;28;20442;-71
2022/07/10 05:51:20;;;;;;;11.73;3.10;;;15.40;99.90;;;;;;5106536;28;20065;-70
2022/07/10 05:53:46;;;;;;;7.70;2.17;;;15.50;99.90;;;;;;5106643;28;20513;-70
2022/07/10 05:56:11;;;;;;;10.30;2.40;;;15.50;99.90;;;;;;5102141;28;20575;-69
2022/07/10 05:58:37;;;;;;;8.20;2.42;;;15.20;99.90;;;;;;5109822;28;20115;-71
2022/07/10 06:01:03;;;;;;;11.52;2.35;;;15.60;99.90;;;;;;5104405;28;20316;-69
2022/07/10 06:03:31;;;;;;;11.25;3.20;;;15.40;99.90;;;;;;5108648;28;20035;-69
2022/07/10 06:05:59;;;;;;;10.85;3.10;;;15.50;99.90;;;;;;5105210;28;20036;-69
2022/07/10 06:08:25;;;;;;;10.32;2.10;;;15.40;99.90;;;;;;5106381;28;20078;-70
2022/07/10 06:10:50;;;;;;;9.45;3.40;;;15.20;99.90;;;;;;5106912;28;20082;-69
2022/07/10 06:13:16;;;;;;;12.15;3.20;;;15.30;99.90;;;;;;5102876;28;20048;-70
2022/07/10 06:15:41;;;;;;;6.70;2.40;;;15.40;99.90;;;;;;5106793;28;20130;-69
2022/07/10 06:18:07;;;;;;;13.63;3.17;;;15.30;99.90;;;;;;5103592;28;20097;-69
2022/07/10 06:20:33;;;;;;;11.82;3.00;;;15.50;99.90;;;;;;5105682;28;20039;-69
2022/07/10 06:22:58;;;;;;;15.32;3.58;;;15.40;99.90;;;;;;5104438;28;20520;-69
2022/07/10 06:25:24;;;;;;;11.73;2.50;;;15.20;99.90;;;;;;5105696;28;20035;-69
2022/07/10 06:27:50;;;;;;;3.88;1.70;;;15.40;99.90;;;;;;5107138;28;20032;-69
2022/07/10 06:30:15;;;;;;;7.03;2.58;;;15.60;99.90;;;;;;5103418;28;20163;-69
2022/07/10 06:32:41;;;;;;;7.15;1.80;;;15.20;99.90;;;;;;5106280;28;20054;-71
2022/07/10 06:35:08;;;;;;;12.68;3.03;;;15.20;99.90;;;;;;5103102;28;20074;-69
2022/07/10 06:37:34;;;;;;;8.07;1.40;;;15.30;99.90;;;;;;5123001;22;20058;-68
2022/07/10 06:39:59;;;;;;;9.50;1.73;;;15.20;99.90;;;;;;5065482;28;20040;-66
2022/07/10 06:42:25;;;;;;;9.90;2.28;;;15.20;99.90;;;;;;5049988;28;20037;-68
2022/07/10 06:44:51;;;;;;;6.40;1.50;;;15.20;99.90;;;;;;5068727;28;20502;-68
2022/07/10 06:50:04;;;;;;;6.47;1.42;;;15.80;99.90;;;;;;5050821;28;20084;-68
2022/07/10 06:52:35;;;;;;;6.10;1.40;;;15.40;99.90;;;;;;5067087;28;20566;-68
2022/07/10 06:55:02;;;;;;;4.68;1.70;;;15.50;99.90;;;;;;5052134;28;20037;-69
2022/07/10 06:57:28;;;;;;;7.18;2.40;;;15.10;99.90;;;;;;5034345;28;20118;-68
2022/07/10 06:59:54;;;;;;;5.05;1.70;;;15.60;99.90;;;;;;5050229;28;20090;-69
2022/07/10 07:02:19;;;;;;;7.57;1.65;;;15.30;99.90;;;;;;5039863;28;20033;-68
2022/07/10 07:04:45;;;;;;;5.90;1.40;;;15.50;99.90;;;;;;5043326;28;20076;-69
2022/07/10 07:07:12;;;;;;;3.05;1.35;;;15.90;99.90;;;;;;5048028;28;20420;-70
2022/07/10 07:09:38;;;;;;;5.72;1.50;;;15.70;99.90;;;;;;5048192;28;20048;-68
2022/07/10 07:12:04;;;;;;;9.77;1.63;;;15.80;99.90;;;;;;5046453;28;20044;-68
2022/07/10 07:14:30;;;;;;;4.97;1.83;;;15.40;99.90;;;;;;5048263;28;20087;-68
2022/07/10 07:17:03;;;;;;;4.65;1.65;;;15.90;99.90;;;;;;5043924;28;20068;-69
2022/07/10 07:19:32;;;;;;;;;;;15.90;99.90;;;;;;5063964;28;20037;-68
2022/07/10 07:24:45;;;;;;;6.25;1.85;;;15.90;99.90;;;;;;5056361;28;20140;-69
2022/07/10 07:27:11;;;;;;;4.88;2.08;;;16.40;99.90;;;;;;5046168;28;20128;-70
2022/07/10 07:29:37;;;;;;;4.30;1.40;;;16.10;99.90;;;;;;5045945;28;20127;-69
2022/07/10 07:32:03;;;;;;;3.67;1.23;;;16.10;99.90;;;;;;5046475;28;20451;-70
2022/07/10 07:34:28;;;;;;;4.93;1.02;;;16.10;99.90;;;;;;5046432;28;20045;-68
2022/07/10 07:36:54;;;;;;;4.53;1.73;;;16.00;99.90;;;;;;5046749;28;20573;-69
2022/07/10 07:39:20;;;;;;;4.05;1.17;;;16.00;99.90;;;;;;5064969;28;20055;-69
2022/07/10 07:41:45;;;;;;;4.30;1.27;;;15.70;99.90;;;;;;5050650;28;20446;-70
2022/07/10 07:44:12;;;;;;;5.00;1.73;;;15.80;99.90;;;;;;5052520;28;20102;-69
2022/07/10 07:46:37;;;;;;;7.40;2.42;;;16.00;99.90;;;;;;5043945;28;20091;-68
2022/07/10 07:49:03;;;;;;;9.82;2.30;;;15.80;99.90;;;;;;5051809;28;20454;-69
2022/07/10 07:51:29;;;;;;;5.43;1.98;;;15.70;99.90;;;;;;5052005;28;20438;-67
2022/07/10 07:53:54;;;;;;;6.90;1.52;;;15.80;99.90;;;;;;5050627;28;20049;-69
2022/07/10 07:56:20;;;;;;;4.68;1.70;;;15.70;99.90;;;;;;5022513;28;20411;-69
2022/07/10 07:58:45;;;;;;;5.70;1.88;;;15.70;99.90;;;;;;5032693;28;20072;-69
2022/07/10 08:01:11;;;;;;;9.65;2.70;;;15.60;99.90;;;;;;5051770;28;20355;-69
2022/07/10 08:03:36;;;;;;;2.85;1.40;;;15.80;99.90;;;;;;5050650;28;20036;-69
2022/07/10 08:06:02;;;;;;;5.95;1.73;;;15.60;99.90;;;;;;5025524;28;20041;-68
2022/07/10 08:08:28;;;;;;;9.75;2.67;;;15.70;99.90;;;;;;5049992;28;20060;-68
2022/07/10 08:10:53;;;;;;;5.00;1.58;;;15.70;99.90;;;;;;5033141;28;20429;-69
2022/07/10 08:13:19;;;;;;;6.05;2.60;;;15.90;99.90;;;;;;5050183;28;20478;-68
2022/07/10 08:15:44;;;;;;;5.30;2.45;;;15.80;99.90;;;;;;5066057;28;20037;-69
2022/07/10 08:18:10;;;;;;;4.28;1.70;;;15.90;99.90;;;;;;5025714;28;20068;-69
2022/07/10 08:20:36;;;;;;;5.25;1.63;;;16.80;99.90;;;;;;5050354;28;20170;-68
2022/07/10 08:23:01;;;;;;;5.47;1.33;;;16.30;99.90;;;;;;5066628;28;20039;-70
2022/07/10 08:25:29;;;;;;;6.18;1.90;;;16.30;99.90;;;;;;5050316;28;20521;-69
2022/07/10 08:27:59;;;;;;;8.65;2.10;;;16.30;99.90;;;;;;5049920;28;20474;-69
2022/07/10 08:30:25;;;;;;;6.50;1.90;;;16.30;99.90;;;;;;5051102;28;20075;-70
2022/07/10 08:32:51;;;;;;;3.03;1.48;;;16.20;99.90;;;;;;5049644;28;20065;-70
2022/07/10 08:35:16;;;;;;;6.45;1.70;;;16.20;99.90;;;;;;5049642;28;20468;-69
2022/07/10 08:37:43;;;;;;;8.27;1.77;;;16.30;99.90;;;;;;5050707;28;20047;-70
2022/07/10 08:40:11;;;;;;;7.75;2.67;;;16.40;99.90;;;;;;5050595;28;20044;-69
2022/07/10 08:42:37;;;;;;;8.13;2.10;;;16.40;99.90;;;;;;5050953;28;20033;-69
2022/07/10 08:45:03;;;;;;;6.70;1.83;;;16.40;99.90;;;;;;5033120;28;20041;-70
2022/07/10 08:47:31;;;;;;;8.20;1.90;;;16.30;99.90;;;;;;5051130;28;20141;-69
2022/07/10 08:49:57;;;;;;;4.53;2.00;;;16.40;99.90;;;;;;5049459;28;20399;-69
2022/07/10 08:52:27;;;;;;;9.70;3.53;;;16.60;99.90;;;;;;5050911;28;20072;-69
2022/07/10 08:54:53;;;;;;;5.15;1.63;;;17.20;99.90;;;;;;5050677;28;20045;-69
2022/07/10 08:57:19;;;;;;;5.45;1.48;;;17.20;99.90;;;;;;5045941;28;20044;-67
2022/07/10 08:59:45;;;;;;;5.45;1.98;;;16.50;99.90;;;;;;5032558;28;20033;-69
2022/07/10 09:02:11;;;;;;;7.97;3.20;;;16.60;99.90;;;;;;5066155;28;20456;-69
2022/07/10 09:04:36;;;;;;;3.42;1.38;;;16.50;99.90;;;;;;5050577;28;20041;-69
2022/07/10 09:07:04;;;;;;;7.47;2.95;;;17.10;99.90;;;;;;5049214;28;20037;-69
2022/07/10 09:09:29;;;;;;;8.93;2.88;;;17.00;99.90;;;;;;5065535;28;20094;-69
2022/07/10 09:11:57;;;;;;;7.30;2.97;;;16.90;99.90;;;;;;5048836;28;20453;-69
2022/07/10 09:14:25;;;;;;;5.32;1.48;;;17.00;99.90;;;;;;5032561;28;20330;-69
2022/07/10 09:16:51;;;;;;;9.73;2.97;;;16.60;99.90;;;;;;5050352;28;20466;-69
2022/07/10 09:19:25;;;;;;;9.45;2.22;;;16.70;99.90;;;;;;5051111;28;20496;-70
2022/07/10 09:22:12;;;;;;;10.32;2.75;;;16.80;99.90;;;;;;5052231;28;20107;-69
2022/07/10 09:24:46;;;;;;;5.07;2.85;;;16.70;99.90;;;;;;5051777;28;20148;-70
2022/07/10 09:27:14;;;;;;;7.80;3.55;;;16.90;99.90;;;;;;5050747;28;20041;-70
2022/07/10 09:29:55;;;;;;;5.38;2.00;;;16.90;99.90;;;;;;5048652;28;20063;-70
2022/07/10 09:32:20;;;;;;;4.88;1.58;;;16.90;99.90;;;;;;5065549;28;20052;-70
2022/07/10 09:36:04;;;;;;;8.50;1.60;;;16.60;99.90;;;;;;5032278;28;20068;-71
2022/07/10 09:37:41;;;;;;;5.65;1.85;;;16.80;99.90;;;;;;5046525;28;20053;-70
2022/07/10 09:40:08;;;;;;;10.25;2.25;;;16.80;99.90;;;;;;5064820;28;20045;-70
2022/07/10 09:42:42;;;;;;;6.45;1.65;;;16.80;99.90;;;;;;5048702;28;20505;-70
2022/07/10 09:45:11;;;;;;;4.55;1.60;;;16.90;99.90;;;;;;5060394;28;20037;-70
2022/07/10 09:47:46;;;;;;;5.78;1.90;;;16.90;99.90;;;;;;5048002;28;20052;-69
2022/07/10 09:50:22;;;;;;;6.22;1.48;;;16.70;99.90;;;;;;5047896;28;20134;-69
2022/07/10 09:52:54;;;;;;;4.30;1.70;;;16.80;99.90;;;;;;5046767;28;20046;-70
2022/07/10 09:55:21;;;;;;;7.25;2.75;;;17.00;99.90;;;;;;5049586;28;20078;-70
2022/07/10 09:57:54;;;;;;;6.03;2.38;;;17.10;99.90;;;;;;5049335;28;20040;-69
2022/07/10 10:00:21;;;;;;;;;;;17.30;99.90;;;;;;5065246;28;20492;-69
2022/07/10 10:02:47;;;;;;;3.47;1.45;;;17.40;99.90;;;;;;5047548;28;20011;-70
2022/07/10 10:05:14;;;;;;;6.00;1.60;;;17.60;99.90;;;;;;5049239;28;20124;-68
2022/07/10 10:07:40;;;;;;;8.90;2.13;;;17.30;99.90;;;;;;5064319;28;20052;-69
2022/07/10 10:10:07;;;;;;;4.53;1.25;;;17.30;99.90;;;;;;5031177;28;20495;-69
2022/07/10 10:12:45;;;;;;;5.13;1.70;;;17.30;99.90;;;;;;5049175;28;20501;-69
2022/07/10 10:15:11;;;;;;;4.72;1.60;;;17.20;99.90;;;;;;5041039;28;20040;-69
2022/07/10 10:17:40;;;;;;;6.78;2.60;;;17.20;99.90;;;;;;5048860;28;20040;-69
2022/07/10 10:22:55;;;;;;;3.40;2.10;;;17.40;99.90;;;;;;5048825;28;20044;-69
2022/07/10 10:25:23;;;;;;;9.25;2.83;;;17.80;99.90;;;;;;5048962;28;20048;-69
2022/07/10 10:27:50;;;;;;;6.32;2.13;;;18.00;99.90;;;;;;5048653;28;20044;-69
2022/07/10 10:30:16;;;;;;;4.30;1.70;;;18.10;99.90;;;;;;5048504;28;20033;-70
2022/07/10 10:32:42;;;;;;;3.80;1.48;;;18.30;99.90;;;;;;5048572;28;20106;-70
2022/07/10 10:35:09;;;;;;;7.53;2.30;;;18.20;99.90;;;;;;5046888;28;20033;-69
2022/07/10 10:37:42;;;;;;;7.20;2.03;;;18.20;99.90;;;;;;5048362;28;20414;-69
2022/07/10 10:40:09;;;;;;;5.38;1.40;;;18.10;99.90;;;;;;5063809;28;20033;-69
2022/07/10 10:42:45;;;;;;;4.75;1.33;;;17.90;99.90;;;;;;5048413;28;20380;-68
2022/07/10 10:45:29;;;;;;;4.75;1.70;;;17.90;99.90;;;;;;5048633;28;20071;-70
2022/07/10 10:48:12;;;;;;;5.32;1.75;;;17.80;99.90;;;;;;5030398;28;20049;-69
2022/07/10 10:50:41;;;;;;;6.47;1.50;;;17.60;99.90;;;;;;5044405;28;20577;-70
2022/07/10 10:53:16;;;;;;;6.95;1.98;;;17.60;99.90;;;;;;5064240;28;20096;-69
2022/07/10 10:56:03;;;;;;;7.03;1.60;;;17.80;99.90;;;;;;5046844;28;20052;-70
2022/07/10 10:58:41;;;;;;;7.88;1.92;;;17.30;99.90;;;;;;5064185;28;20523;-70
2022/07/10 11:01:25;;;;;;;7.88;1.65;;;17.90;99.90;;;;;;5047091;28;20368;-70
2022/07/10 11:04:10;;;;;;;5.25;1.30;;;17.20;99.90;;;;;;5061879;28;20457;-70
2022/07/10 11:06:40;;;;;;;4.68;2.30;;;17.30;99.90;;;;;;5060634;28;20048;-69
2022/07/10 11:09:28;;;;;;;3.58;1.80;;;17.40;99.90;;;;;;5030068;28;20036;-69
2022/07/10 11:12:08;;;;;;;3.70;1.70;;;17.40;99.90;;;;;;5048122;28;20386;-68
2022/07/10 11:14:46;;;;;;;4.72;2.53;;;17.20;99.90;;;;;;5060147;28;20044;-69
2022/07/10 11:17:12;;;;;;;5.63;1.98;;;17.50;99.90;;;;;;5058589;28;20071;-69
2022/07/10 11:19:39;;;;;;;4.50;1.52;;;17.30;99.90;;;;;;5046195;28;20045;-67
2022/07/10 11:22:13;;;;;;;4.47;1.45;;;17.70;99.90;;;;;;5063954;28;20043;-70
2022/07/10 11:24:59;;;;;;;2.88;1.40;;;17.50;99.90;;;;;;5060431;28;20045;-70
2022/07/10 11:27:48;;;;;;;8.95;1.65;;;18.30;99.90;;;;;;5029902;28;20044;-70
2022/07/10 11:30:13;;;;;;;5.90;2.55;;;17.70;99.90;;;;;;5047766;28;20048;-70
2022/07/10 11:32:39;;;;;;;5.30;2.50;;;17.40;99.90;;;;;;5045402;28;20045;-69
2022/07/10 11:35:14;;;;;;;4.47;2.63;;;17.90;99.90;;;;;;5062974;28;20025;-69
2022/07/10 11:37:51;;;;;;;7.95;2.60;;;17.80;99.90;;;;;;5046733;28;20083;-69
2022/07/10 11:40:19;;;;;;;3.28;1.30;;;17.60;99.90;;;;;;5063051;28;20029;-70
2022/07/10 11:42:55;;;;;;;6.20;1.70;;;17.80;99.90;;;;;;5046605;28;20072;-71
2022/07/10 11:45:26;;;;;;;6.28;2.10;;;17.90;99.90;;;;;;5063187;28;20174;-70
2022/07/10 11:47:51;;;;;;;5.35;2.05;;;18.20;99.90;;;;;;5048234;28;20041;-68
2022/07/10 11:50:17;;;;;;;4.10;2.45;;;17.90;99.90;;;;;;5063063;28;20063;-70
2022/07/10 11:52:43;;;;;;;4.63;1.98;;;17.90;99.90;;;;;;5047614;28;20047;-70
2022/07/10 11:55:19;;;;;;;6.07;2.55;;;18.00;99.90;;;;;;5046086;28;20040;-70
2022/07/10 11:57:48;;;;;;;12.10;2.00;;;18.00;99.90;;;;;;5046197;28;20048;-70
2022/07/10 12:00:40;;;;;;;7.32;2.53;;;18.70;99.90;;;;;;5062852;28;20095;-69
2022/07/10 12:03:20;;;;;;;4.63;1.55;;;18.30;99.90;;;;;;5037574;28;20108;-69
2022/07/10 12:05:47;;;;;;;5.35;1.90;;;18.80;99.90;;;;;;5046227;28;20048;-69
2022/07/10 12:08:13;;;;;;;4.05;1.70;;;18.00;99.90;;;;;;5040578;28;20041;-69
2022/07/10 12:10:41;;;;;;;3.97;2.08;;;18.10;99.90;;;;;;5046591;28;20036;-69
2022/07/10 12:13:10;;;;;;;7.03;2.13;;;18.00;99.90;;;;;;5047408;28;20588;-69
2022/07/10 12:15:41;;;;;;;5.65;1.85;;;17.90;99.90;;;;;;5046913;28;20090;-69
2022/07/10 12:18:08;;;;;;;9.10;3.55;;;18.10;99.90;;;;;;5043932;28;20071;-68
2022/07/10 12:20:34;;;;;;;5.15;1.70;;;17.90;99.90;;;;;;5047487;28;20401;-69
2022/07/10 12:23:01;;;;;;;4.38;2.03;;;18.20;99.90;;;;;;5026200;28;20041;-68
2022/07/10 12:25:26;;;;;;;8.57;2.60;;;18.80;99.90;;;;;;5048221;28;20044;-69
2022/07/10 12:27:57;;;;;;;7.80;2.55;;;18.50;99.90;;;;;;5049647;28;20110;-69
2022/07/10 12:30:23;;;;;;;6.82;1.50;;;18.50;99.90;;;;;;5049528;28;20051;-69
2022/07/10 12:32:48;;;;;;;6.07;2.25;;;18.70;99.90;;;;;;5049756;28;20128;-67
2022/07/10 12:35:17;;;;;;;2.63;1.40;;;19.90;99.90;;;;;;5050831;28;20094;-69
2022/07/10 12:37:49;;;;;;;4.70;1.50;;;19.00;99.90;;;;;;5051101;28;20118;-69
2022/07/10 12:40:30;;;;;;;6.72;1.50;;;19.60;99.90;;;;;;5104677;22;20086;-70
2022/07/10 12:43:03;;;;;;;8.63;1.75;;;19.50;99.90;;;;;;5085920;28;20036;-70
2022/07/10 12:45:29;;;;;;;;;;;18.90;99.90;;;;;;5089650;28;20570;-69
2022/07/10 12:47:55;;;;;;;2.80;1.05;;;18.90;99.90;;;;;;5086756;28;20007;-70
2022/07/10 12:50:23;;;;;;;10.25;2.70;;;19.20;99.90;;;;;;5066234;28;20040;-70
2022/07/10 12:52:48;;;;;;;4.15;1.20;;;19.30;99.90;;;;;;5070338;28;20040;-70
2022/07/10 12:55:16;;;;;;;4.00;1.20;;;19.50;99.90;;;;;;5063295;28;20052;-68
2022/07/10 12:57:54;;;;;;;4.03;1.20;;;19.40;99.90;;;;;;5060943;28;20525;-70